»·PEaware :: ASA841 KLAX-KPDX

ASA841 :: KLAX-KPDX

FLIGHT INFORMATION

Flight Status: Arrived
Operator:
Alaska Airlines
More flights by this operator :: More flights under this callsign
Pilot: Reece B. (30452)
Aircraft: BOEING 737-800
(B738)
More flights by this aircraft type
Origin: KLAX Los Angeles Intl
United States
Destination: KPDX Portland Intl
United States
More flights between these airports :: More routes between these airports
Route: +LADYJ4 CSTRO DCT NTELL DCT SHIMR DCT GALLO TMBRS2
File this flight plan on PilotEdge
Remarks:
Altitude:
(Current/Filed)
36,000ft
Speed:
(Current/Filed)
450kts
Departed: 19-Jul-20 07:54 PM
Arrived: 19-Jul-20 09:49 PM
Distance/Time
Traveled:
725nm/1:55
Distance/Time
To Go:
Arrived

Flight Plot

Page will automatically refresh every two minutes.


Map Options




Map Legend


Flown Route
Filed Route
Departure Airport
Arrival Airport
Navaid (VOR, NDB)
Fix

Horizontal Profiles

Position Reports

Time Latitude Longitude Heading Altitude Ground
Speed
19-Jul-20 19:31 33.940807 -118.402523 120 122ft 0kts
19-Jul-20 19:32 33.940807 -118.402523 120 122ft 0kts
19-Jul-20 19:33 33.940807 -118.402523 120 122ft 0kts
19-Jul-20 19:34 33.940807 -118.402523 120 122ft 0kts
19-Jul-20 19:35 33.940807 -118.402523 120 122ft 0kts
19-Jul-20 19:36 33.940807 -118.402523 120 122ft 0kts
19-Jul-20 19:37 33.940807 -118.402523 120 122ft 0kts
19-Jul-20 19:38 33.940807 -118.402523 120 122ft 0kts
19-Jul-20 19:39 33.940807 -118.402523 120 122ft 0kts
19-Jul-20 19:40 33.940807 -118.402523 120 122ft 0kts
19-Jul-20 19:41 33.940807 -118.402523 120 122ft 0kts
19-Jul-20 19:42 33.940893 -118.402703 119 122ft 2kts
19-Jul-20 19:43 33.941314 -118.403197 159 122ft 2kts
19-Jul-20 19:44 33.941578 -118.403261 177 122ft 0kts
19-Jul-20 19:45 33.941578 -118.403261 177 122ft 0kts
19-Jul-20 19:46 33.940367 -118.403104 171 122ft 0kts
19-Jul-20 19:47 33.940367 -118.403103 172 122ft 0kts
19-Jul-20 19:48 33.939472 -118.401201 85 121ft 13kts
19-Jul-20 19:49 33.939965 -118.396441 83 112ft 17kts
19-Jul-20 19:50 33.940543 -118.390506 90 106ft 18kts
19-Jul-20 19:51 33.941048 -118.385086 82 105ft 14kts
19-Jul-20 19:52 33.940281 -118.383277 183 102ft 6kts
19-Jul-20 19:53 33.937454 -118.404461 263 377ft 163kts
19-Jul-20 19:54 33.930890 -118.467864 263 2409ft 237kts
19-Jul-20 19:55 33.923843 -118.554173 264 4991ft 274kts
19-Jul-20 19:56 33.939366 -118.638463 312 6781ft 277kts
19-Jul-20 19:57 34.008670 -118.674868 354 8016ft 284kts
19-Jul-20 19:58 34.086367 -118.669868 7 8026ft 285kts
19-Jul-20 19:59 34.165085 -118.651197 9 10458ft 306kts
19-Jul-20 20:00 34.256889 -118.637163 354 12245ft 356kts
19-Jul-20 20:01 34.355991 -118.657981 348 14877ft 371kts
19-Jul-20 20:02 34.457475 -118.680482 349 15027ft 368kts
19-Jul-20 20:03 34.558249 -118.699846 349 15027ft 368kts
19-Jul-20 20:04 34.660054 -118.719719 349 16864ft 378kts
19-Jul-20 20:05 34.758670 -118.758366 330 19024ft 390kts
19-Jul-20 20:06 34.853099 -118.822926 329 20942ft 404kts
19-Jul-20 20:07 34.951622 -118.890673 329 22745ft 415kts
19-Jul-20 20:08 35.051937 -118.959806 330 24431ft 425kts
19-Jul-20 20:09 35.145724 -119.024600 330 25873ft 433kts
19-Jul-20 20:10 35.251921 -119.098168 330 27332ft 441kts
19-Jul-20 20:11 35.362371 -119.174909 330 28690ft 450kts
19-Jul-20 20:12 35.474107 -119.242894 338 29833ft 459kts
19-Jul-20 20:13 35.592857 -119.298295 339 31289ft 457kts
19-Jul-20 20:14 35.711220 -119.351589 339 32688ft 453kts
19-Jul-20 20:15 35.827613 -119.403600 339 33950ft 450kts
19-Jul-20 20:16 35.943609 -119.455441 339 35146ft 446kts
19-Jul-20 20:17 36.058171 -119.506763 338 35920ft 448kts
19-Jul-20 20:18 36.172664 -119.558216 337 35925ft 443kts
19-Jul-20 20:19 36.287671 -119.610355 338 35927ft 453kts
19-Jul-20 20:20 36.401608 -119.661599 338 35926ft 458kts
19-Jul-20 20:21 36.519125 -119.714780 338 35927ft 455kts
19-Jul-20 20:23 36.636475 -119.768069 338 35926ft 456kts
19-Jul-20 20:24 36.755090 -119.822208 338 35926ft 455kts
19-Jul-20 20:25 36.873600 -119.873437 344 35926ft 456kts
19-Jul-20 20:26 36.995652 -119.901032 349 35926ft 457kts
19-Jul-20 20:27 37.118728 -119.922077 350 35926ft 457kts
19-Jul-20 20:28 37.242462 -119.941688 350 36019ft 455kts
19-Jul-20 20:29 37.366754 -119.960973 350 36924ft 442kts
19-Jul-20 20:30 37.487974 -119.979751 350 37976ft 439kts
19-Jul-20 20:31 37.611177 -119.998882 350 38073ft 455kts
19-Jul-20 20:32 37.737346 -120.018478 350 38064ft 458kts
19-Jul-20 20:33 37.863329 -120.038169 350 38086ft 456kts
19-Jul-20 20:34 37.981196 -120.056570 350 38108ft 457kts
19-Jul-20 20:35 38.105526 -120.076068 350 38098ft 457kts
19-Jul-20 20:36 38.231919 -120.100921 343 38086ft 454kts
19-Jul-20 20:37 38.352541 -120.146056 340 38103ft 453kts
19-Jul-20 20:38 38.472912 -120.195264 339 38100ft 453kts
19-Jul-20 20:39 38.592682 -120.244650 339 38066ft 452kts
19-Jul-20 20:40 38.711937 -120.294068 339 38063ft 452kts
19-Jul-20 20:40 38.811590 -120.335509 339 38064ft 452kts
19-Jul-20 20:42 38.950881 -120.393647 340 38114ft 451kts
19-Jul-20 20:43 39.070375 -120.443712 340 38216ft 452kts
19-Jul-20 20:43 39.169311 -120.485296 340 38219ft 451kts
19-Jul-20 20:44 39.273353 -120.482893 13 38219ft 463kts
19-Jul-20 20:46 39.418586 -120.429808 13 38156ft 469kts
19-Jul-20 20:46 39.524402 -120.393785 13 38284ft 479kts
19-Jul-20 20:47 39.653003 -120.349830 13 38213ft 475kts
19-Jul-20 20:48 39.780428 -120.305822 13 38183ft 474kts
19-Jul-20 20:49 39.908399 -120.261138 13 38183ft 476kts
19-Jul-20 20:50 40.029304 -120.292411 317 38183ft 458kts
19-Jul-20 20:51 40.120688 -120.408131 313 38182ft 458kts
19-Jul-20 20:52 40.211144 -120.525138 313 38170ft 458kts
19-Jul-20 20:53 40.301838 -120.642829 313 38139ft 458kts
19-Jul-20 20:54 40.364599 -120.784551 293 38128ft 454kts
19-Jul-20 20:55 40.417574 -120.935007 293 38128ft 454kts
19-Jul-20 20:56 40.470709 -121.086136 293 38066ft 456kts
19-Jul-20 20:57 40.523603 -121.236859 293 37984ft 457kts
19-Jul-20 20:58 40.580461 -121.386648 310 37981ft 459kts
19-Jul-20 20:59 40.697499 -121.434378 15 37990ft 471kts
19-Jul-20 21:00 40.818057 -121.365627 23 38016ft 472kts
19-Jul-20 21:01 40.936570 -121.293162 23 38018ft 470kts
19-Jul-20 21:02 41.059585 -121.242031 355 38018ft 464kts
19-Jul-20 21:03 41.169230 -121.310354 323 38018ft 459kts
19-Jul-20 21:04 41.281509 -121.390464 335 38018ft 460kts
19-Jul-20 21:05 41.400670 -121.452576 338 38087ft 459kts
19-Jul-20 21:06 41.520940 -121.509768 339 38128ft 459kts
19-Jul-20 21:07 41.641527 -121.565540 340 38128ft 458kts
19-Jul-20 21:08 41.762050 -121.620830 340 38128ft 458kts
19-Jul-20 21:09 41.882245 -121.675607 339 38128ft 458kts
19-Jul-20 21:10 41.997917 -121.728944 339 38131ft 457kts
19-Jul-20 21:11 42.117998 -121.784440 339 38137ft 457kts
19-Jul-20 21:12 42.235148 -121.838704 339 38137ft 457kts
19-Jul-20 21:13 42.354586 -121.894218 340 38137ft 456kts
19-Jul-20 21:14 42.470031 -121.948074 340 38125ft 457kts
19-Jul-20 21:15 42.588607 -122.003606 340 38095ft 456kts
19-Jul-20 21:16 42.695825 -122.054015 340 38098ft 457kts
19-Jul-20 21:17 42.815668 -122.110556 340 37992ft 459kts
19-Jul-20 21:18 42.928553 -122.164028 340 37478ft 456kts
19-Jul-20 21:19 43.047480 -122.222626 341 36827ft 455kts
19-Jul-20 21:20 43.167000 -122.280165 341 35798ft 457kts
19-Jul-20 21:21 43.286904 -122.337193 341 34696ft 459kts
19-Jul-20 21:22 43.407256 -122.394347 342 33599ft 462kts
19-Jul-20 21:23 43.527414 -122.451868 341 32079ft 466kts
19-Jul-20 21:24 43.645784 -122.508720 341 29604ft 459kts
19-Jul-20 21:25 43.767802 -122.567406 340 25212ft 471kts
19-Jul-20 21:26 43.888752 -122.625800 340 24065ft 467kts
19-Jul-20 21:27 44.011378 -122.685193 339 24064ft 464kts
19-Jul-20 21:28 44.130392 -122.739101 350 24060ft 464kts
19-Jul-20 21:29 44.252620 -122.739900 0 23121ft 410kts
19-Jul-20 21:30 44.363861 -122.731377 1 22117ft 398kts
19-Jul-20 21:31 44.469443 -122.721493 2 20725ft 372kts
19-Jul-20 21:32 44.571401 -122.711514 2 18843ft 357kts
19-Jul-20 21:33 44.667308 -122.701907 2 17256ft 343kts
19-Jul-20 21:34 44.761731 -122.692416 2 15426ft 337kts
19-Jul-20 21:35 44.853721 -122.683150 2 13631ft 331kts
19-Jul-20 21:36 44.944135 -122.674036 2 12110ft 307kts
19-Jul-20 21:37 45.025701 -122.665780 3 10958ft 292kts
19-Jul-20 21:38 45.104318 -122.657789 3 9867ft 278kts
19-Jul-20 21:39 45.180808 -122.649882 3 8486ft 278kts
19-Jul-20 21:40 45.255569 -122.635045 22 7137ft 276kts
19-Jul-20 21:41 45.318213 -122.581225 31 5845ft 236kts
19-Jul-20 21:42 45.370798 -122.534142 29 4957ft 205kts
19-Jul-20 21:43 45.419756 -122.492947 28 5038ft 206kts
19-Jul-20 21:44 45.470966 -122.457972 19 3963ft 202kts
19-Jul-20 21:45 45.521635 -122.457399 327 2973ft 185kts
19-Jul-20 21:46 45.551823 -122.511024 300 1440ft 159kts
19-Jul-20 21:47 45.571941 -122.562346 300 412ft 149kts
19-Jul-20 21:48 45.588022 -122.601834 335 32ft 23kts
19-Jul-20 21:49 45.588447 -122.598904 118 32ft 14kts
19-Jul-20 21:50 45.587683 -122.595003 51 32ft 3kts
19-Jul-20 21:51 45.587761 -122.594845 55 32ft 0kts
19-Jul-20 21:52 45.587761 -122.594845 55 32ft 0kts

Navigation Log

Ident Type
Flight plan parsing failed, navigation log unavailable